Lastrup, Minnesota
Current Conditions -  °F | °C
As of 4:17 AM on Friday 31 Oct 2014 (Local Time) from KLXL Reporting Station
Clear Clear  
Wind Chill: 22°   Ceiling: Unl
Heat Index: 28°   Visibility: 10mi
Dew Point: 18°   Wind: 6mph
Humidity: 64%   Direction: 350°N
Pressure: 30.51"   Gusts: NA
Location:  46.04°N, 94.06°W
Report Text: KLXL 310917Z AUTO 35005KT 10SM CLR M02/M08 A3051 RMK AO2
Loading
Personal Weather Stations






























Interactive Weather Map
Tropical Storm Tracking
New forecast layout! Learn more

10-Day Weather Forecast

Advertisements
Track Severe Weather on mobile